Time;durP1;ratioP1;P1;durP2;ratioP2;P2;SDS_P1;SDS_P2;PMS_P1;PMS_P2;Temp;Humidity;BMP_temperature;BMP_pressure;BME280_temperature;BME280_humidity;BME280_pressure;Samples;Min_cycle;Max_cycle;Signal;HPM_P1;HPM_P2
2024/01/18 00:01:14;;;;;;;16.00;8.13;;;;;;;23.25;100.00;56616.03;5061744;28;20383;-68
2024/01/18 00:03:41;;;;;;;11.23;7.82;;;;;;;-142.91;100.00;56616.03;5061747;28;20226;-67
2024/01/18 00:06:09;;;;;;;13.38;8.45;;;;;;;-142.91;100.00;56616.03;5062915;28;20675;-69
2024/01/18 00:08:35;;;;;;;10.55;8.23;;;;;;;-142.91;100.00;56616.03;5062087;28;20210;-69
2024/01/18 00:11:02;;;;;;;11.98;7.95;;;;;;;-142.91;100.00;56616.03;5062175;28;20630;-69
2024/01/18 00:13:29;;;;;;;13.63;8.38;;;;;;;-142.91;100.00;56616.03;5062075;28;20755;-69
2024/01/18 00:15:55;;;;;;;11.52;9.02;;;;;;;-142.91;100.00;56616.03;5062045;28;20211;-69
2024/01/18 00:18:23;;;;;;;12.05;7.95;;;;;;;-142.91;100.00;56616.03;5062344;28;20202;-69
2024/01/18 00:20:50;;;;;;;9.85;8.57;;;;;;;-142.91;100.00;56616.03;5061510;28;20316;-70
2024/01/18 00:23:17;;;;;;;9.98;8.60;;;;;;;-142.91;100.00;56616.03;5059002;28;20782;-70
2024/01/18 00:25:43;;;;;;;13.10;8.60;;;;;;;;;;5061586;28;20731;-69
2024/01/18 00:28:10;;;;;;;13.27;8.57;;;;;;;-142.91;100.00;56616.03;5061140;28;20305;-72
2024/01/18 00:30:38;;;;;;;11.35;8.48;;;;;;;-142.91;100.00;56616.03;5061385;28;20213;-70
2024/01/18 00:33:05;;;;;;;14.15;9.07;;;;;;;-142.91;100.00;56616.03;5061277;28;20205;-70
2024/01/18 00:35:33;;;;;;;9.57;8.15;;;;;;;-142.91;100.00;56616.03;5061995;28;20289;-73
2024/01/18 00:38:00;;;;;;;10.38;8.63;;;;;;;-142.91;100.00;56616.03;5060102;28;20289;-69
2024/01/18 00:40:26;;;;;;;9.30;8.23;;;;;;;;;;5061988;28;20289;-69
2024/01/18 00:42:53;;;;;;;9.65;8.57;;;;;;;-142.91;100.00;56616.03;5060085;28;20337;-72
2024/01/18 00:45:19;;;;;;;9.20;7.10;;;;;;;;;;5061194;28;20286;-72
2024/01/18 00:47:45;;;;;;;11.07;8.07;;;;;;;;;;5061038;28;20297;-72
2024/01/18 00:50:12;;;;;;;10.05;7.40;;;;;;;-142.91;100.00;56616.03;5061584;28;20313;-69
2024/01/18 00:52:40;;;;;;;9.77;7.30;;;;;;;-142.91;100.00;56616.03;5061610;28;20202;-70
2024/01/18 00:55:09;;;;;;;9.70;7.95;;;;;;;-142.91;100.00;56616.03;5062374;28;20301;-71
2024/01/18 00:57:36;;;;;;;11.82;8.32;;;;;;;-142.91;100.00;56616.03;5062279;28;20318;-69
2024/01/18 01:00:03;;;;;;;9.65;7.90;;;;;;;-142.91;100.00;56616.03;5061473;28;20327;-70
2024/01/18 01:02:30;;;;;;;10.00;8.18;;;;;;;;;;5062154;28;20283;-69
2024/01/18 01:04:56;;;;;;;10.63;8.27;;;;;;;-142.91;100.00;56616.03;5062153;28;20672;-69
2024/01/18 01:07:23;;;;;;;11.55;8.75;;;;;;;;;;5062599;28;20209;-70
2024/01/18 01:09:51;;;;;;;13.95;9.38;;;;;;;;;;5062103;28;20678;-69
2024/01/18 01:12:17;;;;;;;12.57;8.85;;;;;;;-142.91;100.00;56616.03;5062383;28;20205;-69
2024/01/18 01:14:44;;;;;;;11.98;9.07;;;;;;;-142.91;100.00;56616.03;5061818;28;20293;-69
2024/01/18 01:17:10;;;;;;;9.90;8.38;;;;;;;-142.91;100.00;56616.03;5062459;28;20226;-70
2024/01/18 01:19:37;;;;;;;12.88;8.27;;;;;;;-142.91;100.00;56616.03;5061432;28;20739;-70
2024/01/18 01:22:04;;;;;;;10.52;8.40;;;;;;;-142.91;100.00;56616.03;5062095;28;20227;-72
2024/01/18 01:24:31;;;;;;;11.98;9.48;;;;;;;-142.91;100.00;56616.03;5062094;28;20253;-70
2024/01/18 01:26:59;;;;;;;12.30;9.23;;;;;;;-142.91;100.00;56616.03;5061536;28;20296;-70
2024/01/18 01:29:25;;;;;;;10.73;8.65;;;;;;;;;;5062338;28;20206;-69
2024/01/18 01:31:52;;;;;;;9.40;8.43;;;;;;;-142.91;100.00;56616.03;5061882;28;20206;-70
2024/01/18 01:34:19;;;;;;;11.02;9.10;;;;;;;-142.91;100.00;56616.03;5062243;28;20209;-70
2024/01/18 01:36:45;;;;;;;17.40;8.77;;;;;;;-142.91;100.00;56616.03;5065886;28;20289;-70
2024/01/18 01:39:12;;;;;;;12.90;8.90;;;;;;;-142.91;100.00;56616.03;5066127;28;20751;-70
2024/01/18 01:41:38;;;;;;;12.93;9.13;;;;;;;-142.91;100.00;56616.03;5064274;28;20365;-70
2024/01/18 01:44:06;;;;;;;14.13;9.60;;;;;;;-142.91;100.00;56616.03;5063906;28;20234;-70
2024/01/18 01:46:33;;;;;;;14.50;10.40;;;;;;;-142.91;100.00;56616.03;5064260;28;20735;-69
2024/01/18 01:49:02;;;;;;;15.55;10.85;;;;;;;-142.91;100.00;56616.03;5064239;28;20935;-70
2024/01/18 01:51:33;;;;;;;12.80;10.35;;;;;;;-142.91;100.00;56616.03;5063763;28;21115;-70
2024/01/18 01:54:00;;;;;;;18.23;10.88;;;;;;;;;;5063735;28;20202;-69
2024/01/18 01:56:26;;;;;;;12.15;10.35;;;;;;;-142.91;100.00;56616.03;5064255;28;20312;-70
2024/01/18 01:58:53;;;;;;;14.75;10.05;;;;;;;-142.91;100.00;56616.03;5065232;28;20285;-70
2024/01/18 02:01:21;;;;;;;16.38;10.35;;;;;;;-142.91;100.00;56616.03;5062744;28;21455;-69
2024/01/18 02:03:48;;;;;;;13.02;10.50;;;;;;;-142.91;100.00;56616.03;5065062;28;20612;-70
2024/01/18 02:06:15;;;;;;;14.52;10.80;;;;;;;;;;5065438;28;20664;-69
2024/01/18 02:08:43;;;;;;;13.50;11.50;;;;;;;-142.91;100.00;56616.03;5065639;28;20308;-70
2024/01/18 02:11:10;;;;;;;14.82;10.70;;;;;;;-142.91;100.00;56616.03;5065169;28;20269;-70
2024/01/18 02:13:38;;;;;;;16.55;10.45;;;;;;;-142.91;100.00;56616.03;5065650;28;20297;-70
2024/01/18 02:16:05;;;;;;;17.15;10.60;;;;;;;23.27;100.00;56616.03;5065353;28;20206;-70
2024/01/18 02:18:35;;;;;;;14.15;10.05;;;;;;;-142.91;100.00;56616.03;5065322;28;20309;-69
2024/01/18 02:21:02;;;;;;;17.10;11.55;;;;;;;-142.91;100.00;56616.03;5064611;28;20218;-70
2024/01/18 02:23:29;;;;;;;14.30;10.15;;;;;;;;;;5064998;28;20230;-70
2024/01/18 02:25:57;;;;;;;13.77;10.73;;;;;;;-142.91;100.00;56616.03;5065099;28;20206;-71
2024/01/18 02:28:23;;;;;;;16.98;12.13;;;;;;;-142.91;100.00;56616.03;5065257;28;20293;-70
2024/01/18 02:30:50;;;;;;;14.82;11.48;;;;;;;-142.91;100.00;56616.03;5064461;28;20956;-69
2024/01/18 02:33:16;;;;;;;16.98;11.07;;;;;;;-142.91;100.00;56616.03;5064546;28;20285;-70
2024/01/18 02:35:43;;;;;;;16.17;12.13;;;;;;;-142.91;100.00;56616.03;5065729;28;21095;-70
2024/01/18 02:38:10;;;;;;;15.63;11.65;;;;;;;-142.91;100.00;56616.03;5065399;28;20238;-69
2024/01/18 02:40:37;;;;;;;18.42;12.15;;;;;;;-142.91;100.00;56616.03;5064384;28;20866;-70
2024/01/18 02:43:05;;;;;;;17.20;11.18;;;;;;;-142.91;100.00;56616.03;5064649;28;20342;-70
2024/01/18 02:45:31;;;;;;;16.60;10.90;;;;;;;;;;5064323;28;20678;-70
2024/01/18 02:47:58;;;;;;;17.30;12.90;;;;;;;-142.91;100.00;56616.03;5063935;28;20326;-70
2024/01/18 02:50:24;;;;;;;14.32;10.57;;;;;;;-142.91;100.00;56616.03;5064478;28;20305;-69
2024/01/18 02:52:51;;;;;;;15.00;10.35;;;;;;;-142.91;100.00;56616.03;5064398;28;20740;-70
2024/01/18 02:55:18;;;;;;;15.52;10.30;;;;;;;-142.91;100.00;56616.03;5064597;28;20313;-70
2024/01/18 02:57:45;;;;;;;14.00;9.98;;;;;;;-142.91;100.00;56616.03;5064538;28;20198;-70
2024/01/18 03:00:14;;;;;;;12.60;9.80;;;;;;;-142.91;100.00;56616.03;5064053;28;20293;-70
2024/01/18 03:02:40;;;;;;;14.30;10.00;;;;;;;;;;5064074;28;20293;-70
2024/01/18 03:05:07;;;;;;;11.55;9.55;;;;;;;;;;5065096;28;20309;-70
2024/01/18 03:07:34;;;;;;;11.45;9.90;;;;;;;;;;5064293;28;20218;-69
2024/01/18 03:10:00;;;;;;;12.05;8.98;;;;;;;-142.91;100.00;56616.03;5064292;28;20202;-70
2024/01/18 03:12:27;;;;;;;11.75;9.52;;;;;;;;;;5063510;28;20756;-70
2024/01/18 03:14:53;;;;;;;14.02;10.20;;;;;;;;;;5064741;28;20293;-69
2024/01/18 03:17:21;;;;;;;14.63;10.02;;;;;;;-142.91;100.00;56616.03;5063956;28;21179;-69
2024/01/18 03:19:48;;;;;;;11.77;10.18;;;;;;;-142.91;100.00;56616.03;5064022;28;20301;-70
2024/01/18 03:22:15;;;;;;;14.20;10.57;;;;;;;-142.91;100.00;56616.03;5063458;28;20312;-69
2024/01/18 03:24:42;;;;;;;14.38;10.32;;;;;;;-142.91;100.00;56616.03;5064176;28;20224;-70
2024/01/18 03:27:08;;;;;;;12.88;10.43;;;;;;;-142.91;100.00;56616.03;5064038;28;20309;-70
2024/01/18 03:29:35;;;;;;;12.63;9.63;;;;;;;-142.91;100.00;56616.03;5063593;28;20749;-70
2024/01/18 03:32:02;;;;;;;14.70;9.13;;;;;;;-142.91;100.00;56616.03;5063239;28;20297;-69
2024/01/18 03:34:30;;;;;;;14.60;10.27;;;;;;;-142.91;100.00;56616.03;5063751;28;20649;-70
2024/01/18 03:36:56;;;;;;;11.18;9.55;;;;;;;-142.91;100.00;56616.03;5063479;28;20957;-70
2024/01/18 03:39:23;;;;;;;13.65;9.13;;;;;;;-142.91;100.00;56616.03;5064011;28;20293;-70
2024/01/18 03:41:49;;;;;;;11.15;9.00;;;;;;;-142.91;100.00;56616.03;5061972;28;20662;-70
2024/01/18 03:44:16;;;;;;;10.27;9.05;;;;;;;-142.91;100.00;56616.03;5061893;28;20334;-70
2024/01/18 03:46:43;;;;;;;9.75;7.95;;;;;;;-142.91;100.00;56616.03;5061750;28;21651;-70
2024/01/18 03:49:09;;;;;;;9.73;8.50;;;;;;;-142.91;100.00;56616.03;5061534;28;20766;-70
2024/01/18 03:51:37;;;;;;;11.52;8.27;;;;;;;-142.91;100.00;56616.03;5061654;28;20292;-70
2024/01/18 03:54:04;;;;;;;11.02;8.23;;;;;;;-142.91;100.00;56616.03;5062325;28;20198;-70
2024/01/18 03:56:30;;;;;;;9.55;7.88;;;;;;;-142.91;100.00;56616.03;5062604;28;20294;-69
2024/01/18 03:58:57;;;;;;;14.13;7.65;;;;;;;;;;5062714;28;20774;-69
2024/01/18 04:01:23;;;;;;;11.90;8.55;;;;;;;-142.91;100.00;56616.03;5063582;28;20285;-70
2024/01/18 04:03:50;;;;;;;9.52;7.82;;;;;;;-142.91;100.00;56616.03;5063183;28;20297;-71
2024/01/18 04:06:17;;;;;;;10.20;9.15;;;;;;;-142.91;100.00;56616.03;5064336;28;20293;-70
2024/01/18 04:08:45;;;;;;;14.68;9.63;;;;;;;-142.91;100.00;56616.03;5062954;28;20317;-71
2024/01/18 04:11:11;;;;;;;13.43;9.93;;;;;;;-142.91;100.00;56616.03;5062991;28;20323;-70
2024/01/18 04:13:38;;;;;;;12.70;9.43;;;;;;;;;;5062880;28;20612;-70
2024/01/18 04:16:05;;;;;;;9.93;8.20;;;;;;;;;;5063199;28;20202;-69
2024/01/18 04:18:31;;;;;;;12.13;8.70;;;;;;;-142.91;100.00;56616.03;5063412;28;20230;-69
2024/01/18 04:20:59;;;;;;;12.98;7.88;;;;;;;-142.91;100.00;56616.03;5062820;28;20318;-70
2024/01/18 04:23:25;;;;;;;15.57;8.82;;;;;;;-142.91;100.00;56616.03;5063099;28;20293;-70
2024/01/18 04:25:54;;;;;;;11.82;8.73;;;;;;;-142.91;100.00;56616.03;5063348;28;20309;-70
2024/01/18 04:28:21;;;;;;;9.60;8.60;;;;;;;-142.91;100.00;56616.03;5063231;28;20275;-69
2024/01/18 04:30:47;;;;;;;9.65;7.47;;;;;;;-142.91;100.00;56616.03;5062693;28;20277;-70
2024/01/18 04:33:14;;;;;;;9.30;8.27;;;;;;;;;;5062482;28;20297;-70
2024/01/18 04:35:40;;;;;;;9.77;8.60;;;;;;;;;;5062433;28;20301;-69
2024/01/18 04:38:07;;;;;;;11.63;9.38;;;;;;;-142.91;100.00;56616.03;5062922;28;20288;-70
2024/01/18 04:40:34;;;;;;;10.15;8.00;;;;;;;-142.91;100.00;56616.03;5062999;28;20285;-70
2024/01/18 04:43:02;;;;;;;11.95;9.25;;;;;;;;;;5061973;28;20202;-69
2024/01/18 04:45:28;;;;;;;14.88;9.50;;;;;;;-142.91;100.00;56616.03;5063023;28;20226;-69
2024/01/18 04:47:56;;;;;;;13.32;9.00;;;;;;;-142.91;100.00;56616.03;5062953;28;20255;-69
2024/01/18 04:50:24;;;;;;;14.63;9.45;;;;;;;-142.91;100.00;56616.03;5062932;28;20325;-69
2024/01/18 04:52:51;;;;;;;13.50;9.43;;;;;;;;;;5061908;28;20206;-70
2024/01/18 04:55:18;;;;;;;10.57;9.48;;;;;;;-142.91;100.00;56616.03;5062502;28;20198;-70
2024/01/18 04:57:44;;;;;;;15.70;10.93;;;;;;;-142.91;100.00;56616.03;5062846;28;20321;-70
2024/01/18 05:00:14;;;;;;;18.63;13.77;;;;;;;-142.91;100.00;56616.03;5061524;28;20767;-70
2024/01/18 05:02:41;;;;;;;23.40;15.73;;;;;;;-142.91;100.00;56616.03;5060910;28;20237;-70
2024/01/18 05:05:09;;;;;;;29.08;17.90;;;;;;;-142.91;100.00;56616.03;5062551;28;20769;-70
2024/01/18 05:07:35;;;;;;;19.50;13.48;;;;;;;-142.91;100.00;56616.03;5062633;28;20206;-70
2024/01/18 05:10:03;;;;;;;25.23;15.32;;;;;;;-142.91;100.00;56616.03;5062336;28;20283;-71
2024/01/18 05:12:30;;;;;;;27.10;18.00;;;;;;;-142.91;100.00;56616.03;5061971;28;20888;-69
2024/01/18 05:14:57;;;;;;;45.55;26.48;;;;;;;-142.91;100.00;56616.03;5062539;28;20336;-70
2024/01/18 05:17:34;;;;;;;22.65;13.93;;;;;;;-142.91;100.00;56616.03;5062712;28;20305;-70
2024/01/18 05:20:02;;;;;;;20.88;14.48;;;;;;;-142.91;100.00;56616.03;5058696;28;20626;-69
2024/01/18 05:22:29;;;;;;;44.00;16.25;;;;;;;-142.91;100.00;56616.03;5057452;28;20226;-70
2024/01/18 05:24:56;;;;;;;22.50;15.32;;;;;;;-142.91;100.00;56616.03;5062376;28;20334;-70
2024/01/18 05:27:24;;;;;;;28.85;15.57;;;;;;;-142.91;100.00;56616.03;5062689;28;20293;-71
2024/01/18 05:29:51;;;;;;;28.00;17.50;;;;;;;-142.91;100.00;56616.03;5062657;28;20329;-70
2024/01/18 05:32:20;;;;;;;24.83;16.10;;;;;;;-142.91;100.00;56616.03;5061615;28;20320;-69
2024/01/18 05:34:48;;;;;;;26.85;19.38;;;;;;;-142.91;100.00;56616.03;5061742;28;20296;-70
2024/01/18 05:37:15;;;;;;;27.25;18.38;;;;;;;-142.91;100.00;56616.03;5062527;28;20206;-70
2024/01/18 05:39:41;;;;;;;27.20;18.23;;;;;;;-142.91;100.00;56616.03;5062853;28;20625;-70
2024/01/18 05:42:08;;;;;;;27.20;18.58;;;;;;;-142.91;100.00;56616.03;5061199;28;20289;-70
2024/01/18 05:44:35;;;;;;;28.92;19.67;;;;;;;-142.91;100.00;56616.03;5059928;28;20245;-70
2024/01/18 05:47:02;;;;;;;30.05;19.30;;;;;;;-142.91;100.00;56616.03;5054957;28;20297;-70
2024/01/18 05:49:29;;;;;;;32.53;18.33;;;;;;;-142.91;100.00;56616.03;5060516;28;20230;-69
2024/01/18 05:51:57;;;;;;;29.65;18.55;;;;;;;-142.91;100.00;56616.03;5060319;28;20305;-69
2024/01/18 05:54:23;;;;;;;32.00;18.20;;;;;;;-142.91;100.00;56616.03;5060660;28;20704;-70
2024/01/18 05:56:50;;;;;;;24.10;17.35;;;;;;;-142.91;100.00;56616.03;5060024;28;20743;-70
2024/01/18 05:59:17;;;;;;;29.13;17.83;;;;;;;-142.91;100.00;56616.03;5061371;28;20368;-71
2024/01/18 06:01:44;;;;;;;31.70;18.20;;;;;;;-142.91;100.00;56616.03;5061852;28;20202;-70
2024/01/18 06:04:10;;;;;;;36.50;21.20;;;;;;;-142.91;100.00;56616.03;5061729;28;20301;-70
2024/01/18 06:06:37;;;;;;;41.05;23.23;;;;;;;-142.91;100.00;56616.03;5062085;28;20312;-70
2024/01/18 06:09:05;;;;;;;41.10;22.90;;;;;;;-142.91;100.00;56616.03;5062076;28;20281;-72
2024/01/18 06:11:32;;;;;;;34.13;19.77;;;;;;;-142.91;100.00;56616.03;5061806;28;20500;-70
2024/01/18 06:13:58;;;;;;;33.88;20.20;;;;;;;23.25;100.00;56616.03;5061743;28;20631;-72
2024/01/18 06:16:25;;;;;;;28.52;18.20;;;;;;;-142.91;100.00;56616.03;5062164;28;20950;-71
2024/01/18 06:18:52;;;;;;;32.42;19.25;;;;;;;-142.91;100.00;56616.03;5061242;28;20356;-71
2024/01/18 06:21:19;;;;;;;31.48;18.52;;;;;;;-142.91;100.00;56616.03;5061683;28;20259;-71
2024/01/18 06:23:45;;;;;;;24.75;16.67;;;;;;;;;;5065022;28;20259;-71
2024/01/18 06:26:14;;;;;;;26.13;16.92;;;;;;;-142.91;100.00;56616.03;5065202;28;20312;-71
2024/01/18 06:28:40;;;;;;;24.10;16.13;;;;;;;-142.91;100.00;56616.03;5064588;28;21069;-69
2024/01/18 06:31:08;;;;;;;19.90;13.80;;;;;;;-142.91;100.00;56616.03;5065575;28;20297;-70
2024/01/18 06:33:35;;;;;;;20.52;14.27;;;;;;;-142.91;100.00;56616.03;5064966;28;20202;-70
2024/01/18 06:36:02;;;;;;;22.63;15.00;;;;;;;-142.91;100.00;56616.03;5064805;28;20590;-71
2024/01/18 06:38:29;;;;;;;20.25;14.07;;;;;;;-142.91;100.00;56616.03;5064960;28;20291;-71
2024/01/18 06:40:58;;;;;;;23.30;13.55;;;;;;;-142.91;100.00;56616.03;5065340;28;20285;-70
2024/01/18 06:43:26;;;;;;;21.95;13.30;;;;;;;-142.91;100.00;56616.03;5064442;28;20801;-70
2024/01/18 06:45:54;;;;;;;17.27;12.10;;;;;;;-142.91;100.00;56616.03;5065436;28;20671;-71
2024/01/18 06:48:21;;;;;;;23.25;13.00;;;;;;;-142.91;100.00;56616.03;5064316;28;20297;-70
2024/01/18 06:50:47;;;;;;;21.70;13.05;;;;;;;-142.91;100.00;56616.03;5064803;28;20220;-70
2024/01/18 06:53:14;;;;;;;24.50;13.18;;;;;;;-142.91;100.00;56616.03;5064549;28;20298;-70
2024/01/18 06:55:41;;;;;;;18.70;13.27;;;;;;;-142.91;100.00;56616.03;5065023;28;20723;-70
2024/01/18 06:58:07;;;;;;;23.60;14.48;;;;;;;;;;5063803;28;21525;-70
2024/01/18 07:00:35;;;;;;;21.80;13.98;;;;;;;-142.91;100.00;56616.03;5065024;28;20778;-72
2024/01/18 07:03:02;;;;;;;24.48;14.32;;;;;;;-142.91;100.00;56616.03;5064149;28;21024;-71
2024/01/18 07:05:29;;;;;;;22.98;15.38;;;;;;;-142.91;100.00;56616.03;5059721;28;20226;-70
2024/01/18 07:07:55;;;;;;;25.80;16.27;;;;;;;-142.91;100.00;56616.03;5063455;28;20198;-70
2024/01/18 07:10:22;;;;;;;22.77;15.30;;;;;;;-142.91;100.00;56616.03;5064939;28;20217;-72
2024/01/18 07:12:49;;;;;;;23.17;13.70;;;;;;;-142.91;100.00;56616.03;5064538;28;20316;-70
2024/01/18 07:15:16;;;;;;;19.88;12.60;;;;;;;-142.91;100.00;56616.03;5065169;28;20206;-70
2024/01/18 07:17:44;;;;;;;24.23;15.25;;;;;;;-142.91;100.00;56616.03;5062523;28;20199;-70
2024/01/18 07:20:10;;;;;;;21.80;14.07;;;;;;;-142.91;100.00;56616.03;5064427;28;20289;-71
2024/01/18 07:22:37;;;;;;;18.10;12.55;;;;;;;-142.91;100.00;56616.03;5064333;28;20305;-70
2024/01/18 07:25:05;;;;;;;20.85;11.95;;;;;;;-142.91;100.00;56616.03;5064345;28;20253;-71
2024/01/18 07:27:32;;;;;;;13.00;9.85;;;;;;;-142.91;100.00;56616.03;5063633;28;20213;-71
2024/01/18 07:29:58;;;;;;;10.82;8.13;;;;;;;-142.91;100.00;56616.03;5064464;28;20206;-69
2024/01/18 07:32:25;;;;;;;12.70;7.60;;;;;;;;;;5063427;28;20210;-69
2024/01/18 07:34:52;;;;;;;16.27;11.57;;;;;;;;;;5064110;28;20203;-70
2024/01/18 07:37:19;;;;;;;12.85;10.07;;;;;;;;;;5063620;28;20233;-71
2024/01/18 07:39:45;;;;;;;16.20;9.98;;;;;;;;;;5063687;28;20297;-71
2024/01/18 07:42:12;;;;;;;16.23;10.43;;;;;;;-142.91;100.00;56616.03;5062495;28;20284;-71
2024/01/18 07:44:40;;;;;;;14.45;9.48;;;;;;;;;;5062128;28;20238;-70
2024/01/18 07:47:09;;;;;;;17.70;9.52;;;;;;;;;;5057480;28;20230;-70
2024/01/18 07:49:36;;;;;;;10.05;8.02;;;;;;;23.25;100.00;56616.03;5061863;28;20676;-71
2024/01/18 07:52:05;;;;;;;10.57;9.18;;;;;;;23.25;100.00;56616.03;5057320;28;20248;-71
2024/01/18 07:54:32;;;;;;;13.02;8.80;;;;;;;-142.91;100.00;56616.03;5061754;28;20260;-70
2024/01/18 07:56:58;;;;;;;12.98;10.35;;;;;;;-142.91;100.00;56616.03;5061737;28;20676;-71
2024/01/18 07:59:25;;;;;;;14.65;9.73;;;;;;;-142.91;100.00;56616.03;5063610;28;20210;-71
2024/01/18 08:01:51;;;;;;;15.93;9.50;;;;;;;-142.91;100.00;56616.03;5062958;28;20293;-70
2024/01/18 08:04:18;;;;;;;12.77;9.95;;;;;;;23.25;100.00;56616.03;5063113;28;20702;-71
2024/01/18 08:06:44;;;;;;;12.70;9.48;;;;;;;23.25;100.00;56616.03;5063399;28;20226;-71
2024/01/18 08:09:13;;;;;;;13.65;11.10;;;;;;;23.25;100.00;56616.03;5063453;28;20769;-71
2024/01/18 08:11:40;;;;;;;14.85;12.60;;;;;;;23.26;100.00;56616.03;5062762;28;20206;-70
2024/01/18 08:14:07;;;;;;;14.98;11.40;;;;;;;23.25;100.00;56616.03;5062735;28;20242;-71
2024/01/18 08:16:33;;;;;;;14.13;12.13;;;;;;;-142.91;100.00;56616.03;5063372;28;20954;-69
2024/01/18 08:19:00;;;;;;;19.45;11.10;;;;;;;23.25;100.00;56616.03;5063321;28;20293;-71
2024/01/18 08:21:27;;;;;;;23.23;12.30;;;;;;;23.25;100.00;56616.03;5059536;28;20233;-70
2024/01/18 08:23:53;;;;;;;15.82;11.93;;;;;;;23.25;100.00;56616.03;5062948;28;20293;-70
2024/01/18 08:26:21;;;;;;;17.08;11.57;;;;;;;-142.91;100.00;56616.03;5062865;28;20856;-71
2024/01/18 08:28:48;;;;;;;11.15;10.07;;;;;;;23.25;100.00;56616.03;5062574;28;20237;-71
2024/01/18 08:31:15;;;;;;;16.73;11.63;;;;;;;-142.91;100.00;56616.03;5063154;28;20669;-70
2024/01/18 08:33:41;;;;;;;13.07;10.18;;;;;;;-142.91;100.00;56616.03;5062194;28;20206;-70
2024/01/18 08:36:08;;;;;;;16.77;10.55;;;;;;;;;;5063514;28;20240;-70
2024/01/18 08:38:34;;;;;;;14.43;10.50;;;;;;;;;;5063026;28;20918;-71
2024/01/18 08:41:01;;;;;;;14.60;10.77;;;;;;;23.25;100.00;56616.03;5063264;28;20202;-72
2024/01/18 08:43:31;;;;;;;15.23;10.85;;;;;;;23.25;100.00;56616.03;5061923;28;20242;-71
2024/01/18 08:45:59;;;;;;;13.60;11.50;;;;;;;23.25;100.00;56616.03;5061442;28;20617;-70
2024/01/18 08:48:25;;;;;;;19.45;12.40;;;;;;;23.25;100.00;56616.03;5062789;28;20305;-69
2024/01/18 08:50:52;;;;;;;15.18;11.05;;;;;;;-142.91;100.00;56616.03;5063503;28;20292;-71
2024/01/18 08:53:19;;;;;;;20.38;11.90;;;;;;;-142.91;100.00;56616.03;5062361;28;20672;-70
2024/01/18 08:55:45;;;;;;;15.73;12.07;;;;;;;23.41;100.00;56616.03;5062677;28;20209;-70
2024/01/18 08:58:12;;;;;;;17.58;12.15;;;;;;;-142.91;100.00;56616.03;5062244;28;20202;-70
2024/01/18 09:00:39;;;;;;;18.55;13.10;;;;;;;;;;5062966;28;20629;-72
2024/01/18 09:03:06;;;;;;;20.63;13.43;;;;;;;;;;5062271;28;20210;-69
2024/01/18 09:05:32;;;;;;;20.80;12.93;;;;;;;;;;5062879;28;20222;-71
2024/01/18 09:08:00;;;;;;;18.25;12.50;;;;;;;;;;5062355;28;20202;-70
2024/01/18 09:10:27;;;;;;;20.52;13.70;;;;;;;;;;5062753;28;20222;-71
2024/01/18 09:12:53;;;;;;;17.38;12.35;;;;;;;-142.91;100.00;56616.03;5061603;28;20299;-71
2024/01/18 09:15:20;;;;;;;15.52;11.23;;;;;;;23.26;100.00;56616.03;5063140;28;20201;-69
2024/01/18 09:17:48;;;;;;;15.23;11.48;;;;;;;23.25;100.00;56616.03;5062277;28;20938;-71
2024/01/18 09:20:14;;;;;;;14.20;11.43;;;;;;;;;;5062755;28;20198;-70
2024/01/18 09:22:41;;;;;;;15.05;11.10;;;;;;;23.25;100.00;56616.03;5061712;28;20331;-70
2024/01/18 09:25:08;;;;;;;21.00;12.02;;;;;;;23.25;100.00;56616.03;5062640;28;20212;-71
2024/01/18 09:27:34;;;;;;;14.95;10.90;;;;;;;23.25;100.00;56616.03;5062111;28;20252;-70
2024/01/18 09:30:02;;;;;;;17.80;11.77;;;;;;;23.25;100.00;56616.03;5061971;28;20205;-69
2024/01/18 09:32:28;;;;;;;17.45;12.05;;;;;;;;;;5061429;28;20210;-70
2024/01/18 09:34:56;;;;;;;17.02;11.90;;;;;;;;;;5062102;28;20202;-70
2024/01/18 09:37:22;;;;;;;17.45;12.23;;;;;;;23.25;100.00;56616.03;5061066;28;20199;-71
2024/01/18 09:39:49;;;;;;;12.70;8.38;;;;;;;23.26;100.00;56616.03;5062348;28;20212;-70
2024/01/18 09:42:18;;;;;;;16.83;11.80;;;;;;;23.25;100.00;56616.03;5060752;28;20801;-71
2024/01/18 09:44:47;;;;;;;20.60;13.02;;;;;;;23.25;100.00;56616.03;5059076;28;20222;-71
2024/01/18 09:47:15;;;;;;;12.38;10.25;;;;;;;23.25;100.00;56616.03;5061871;28;20229;-71
2024/01/18 09:49:43;;;;;;;18.95;12.48;;;;;;;23.25;100.00;56616.03;5060905;28;20218;-72
2024/01/18 09:52:12;;;;;;;26.45;13.27;;;;;;;23.26;100.00;56616.03;5059274;28;20210;-71
2024/01/18 09:54:39;;;;;;;19.88;11.20;;;;;;;-142.91;100.00;56616.03;5059360;28;20213;-72
2024/01/18 09:57:08;;;;;;;15.20;10.82;;;;;;;-142.91;100.00;56616.03;5062928;28;20629;-70
2024/01/18 09:59:36;;;;;;;19.98;12.55;;;;;;;-142.91;100.00;56616.03;5063695;28;20612;-71
2024/01/18 10:02:03;;;;;;;13.07;11.27;;;;;;;-142.91;100.00;56616.03;5063501;28;20221;-69
2024/01/18 10:04:31;;;;;;;11.82;10.48;;;;;;;23.27;100.00;56616.03;5067039;28;20202;-70
2024/01/18 10:06:57;;;;;;;12.18;8.88;;;;;;;;;;5067244;28;20739;-71
2024/01/18 10:09:26;;;;;;;14.70;10.73;;;;;;;23.26;100.00;56616.03;5068384;28;20200;-70
2024/01/18 10:11:53;;;;;;;14.82;10.02;;;;;;;23.29;100.00;56616.03;5068386;28;20198;-71
2024/01/18 10:14:40;;;;;;;10.95;8.75;;;;;;;-142.91;100.00;56616.03;5067753;28;20293;-70
2024/01/18 10:17:07;;;;;;;12.48;10.20;;;;;;;-142.91;100.00;56616.03;5067242;28;20656;-71
2024/01/18 10:19:34;;;;;;;17.52;9.15;;;;;;;-142.91;100.00;56616.03;5067204;28;20221;-69
2024/01/18 10:22:01;;;;;;;11.93;9.32;;;;;;;-142.91;100.00;56616.03;5065867;28;20255;-75
2024/01/18 10:24:29;;;;;;;12.40;9.90;;;;;;;-142.91;100.00;56616.03;5068729;28;20672;-72
2024/01/18 10:27:02;;;;;;;14.57;9.77;;;;;;;23.27;100.00;56616.03;5064155;28;20222;-74
2024/01/18 10:29:35;;;;;;;12.07;10.20;;;;;;;-142.91;100.00;56616.03;5067425;28;20202;-72
2024/01/18 10:32:02;;;;;;;12.10;10.15;;;;;;;23.27;100.00;56616.03;5070481;28;20206;-73
2024/01/18 10:34:28;;;;;;;11.27;8.90;;;;;;;23.26;100.00;56616.03;5071206;28;20856;-72
2024/01/18 10:36:55;;;;;;;12.68;10.57;;;;;;;-142.91;100.00;56616.03;5070652;28;20293;-74
2024/01/18 10:39:22;;;;;;;14.25;10.82;;;;;;;-142.91;100.00;56616.03;5072021;28;20202;-74
2024/01/18 10:41:50;;;;;;;14.02;9.57;;;;;;;-142.91;100.00;56616.03;5072632;28;20289;-73
2024/01/18 10:44:17;;;;;;;13.38;10.65;;;;;;;;;;5071505;28;20317;-74
2024/01/18 10:46:44;;;;;;;13.73;10.50;;;;;;;-142.91;100.00;56616.03;5071926;28;20317;-73
2024/01/18 10:49:11;;;;;;;16.58;12.55;;;;;;;23.29;100.00;56616.03;5063901;28;20282;-74
2024/01/18 10:51:39;;;;;;;25.77;16.58;;;;;;;23.29;100.00;56616.03;5068349;28;20333;-73
2024/01/18 10:54:08;;;;;;;15.23;10.15;;;;;;;-142.91;100.00;56616.03;5072501;28;20672;-72
2024/01/18 10:56:36;;;;;;;14.95;10.52;;;;;;;23.29;100.00;56616.03;5071808;28;20277;-72
2024/01/18 10:59:06;;;;;;;11.75;9.75;;;;;;;-142.91;100.00;56616.03;5072606;28;20294;-73
2024/01/18 11:01:33;;;;;;;11.80;9.07;;;;;;;;;;5071908;28;20202;-72
2024/01/18 11:04:00;;;;;;;12.93;8.25;;;;;;;-142.91;100.00;56616.03;5072711;28;20293;-73
2024/01/18 11:06:28;;;;;;;11.18;7.72;;;;;;;-142.91;100.00;56616.03;5071565;28;20718;-74
2024/01/18 11:08:57;;;;;;;9.10;7.53;;;;;;;-142.91;100.00;56616.03;5071608;28;20290;-73
2024/01/18 11:11:24;;;;;;;8.13;6.85;;;;;;;;;;5072030;28;20194;-73
2024/01/18 11:13:51;;;;;;;12.98;7.65;;;;;;;23.26;100.00;56616.03;5072255;28;20675;-73
2024/01/18 11:16:19;;;;;;;9.60;6.88;;;;;;;;;;5071793;28;20286;-73
2024/01/18 11:18:49;;;;;;;8.82;7.43;;;;;;;;;;5072329;28;20230;-74
2024/01/18 11:21:16;;;;;;;14.18;6.70;;;;;;;;;;5071840;28;20794;-72
2024/01/18 11:23:42;;;;;;;9.27;8.30;;;;;;;;;;5071526;28;20289;-74
2024/01/18 11:26:09;;;;;;;8.60;6.95;;;;;;;;;;5071452;28;20695;-74
2024/01/18 11:28:36;;;;;;;8.65;7.75;;;;;;;;;;5071711;28;20212;-74
2024/01/18 11:31:03;;;;;;;8.27;6.80;;;;;;;;;;5071325;28;20213;-74